createdAt,value
2018-12-06T00:00:01.739Z,98365.63
2018-12-06T00:02:33.508Z,98357.84
2018-12-06T00:05:04.952Z,98354.81
2018-12-06T00:07:35.543Z,98354.89
2018-12-06T00:10:07.246Z,98357.66
2018-12-06T00:12:37.874Z,98364.06
2018-12-06T00:15:27.890Z,98361.82
2018-12-06T00:17:58.469Z,98368.63
2018-12-06T00:20:29.063Z,98373.09
2018-12-06T00:22:59.652Z,98376.25
2018-12-06T00:25:30.214Z,98384.36
2018-12-06T00:28:00.813Z,98380.24
2018-12-06T00:30:39.206Z,98387.05
2018-12-06T00:33:10.026Z,98391.25
2018-12-06T00:35:40.606Z,98395.58
2018-12-06T00:38:11.180Z,98389.95
2018-12-06T00:40:41.982Z,98383.54
2018-12-06T00:43:12.585Z,98387.95
2018-12-06T00:45:43.158Z,98382.41
2018-12-06T00:48:14.055Z,98375.70
2018-12-06T00:50:44.634Z,98378.10
2018-12-06T00:53:15.202Z,98376.38
2018-12-06T00:55:45.765Z,98378.42
2018-12-06T00:58:16.656Z,98371.55
2018-12-06T01:00:47.245Z,98366.91
2018-12-06T01:03:19.142Z,98359.95
2018-12-06T01:05:49.694Z,98349.63
2018-12-06T01:08:20.284Z,98345.57
2018-12-06T01:10:50.974Z,98335.38
2018-12-06T01:13:21.990Z,98312.09
2018-12-06T01:15:52.555Z,98298.53
2018-12-06T01:18:23.614Z,98299.25
2018-12-06T01:20:54.198Z,98277.58
2018-12-06T01:23:24.765Z,98262.75
2018-12-06T01:25:55.325Z,98261.84
2018-12-06T01:28:25.953Z,98238.97
2018-12-06T01:30:56.506Z,98215.69
2018-12-06T01:33:27.086Z,98206.12
2018-12-06T01:35:57.651Z,98199.00
2018-12-06T01:38:28.238Z,98210.68
2018-12-06T01:40:58.803Z,98208.69
2018-12-06T01:43:29.393Z,98200.64
2018-12-06T01:46:00.227Z,98189.22
2018-12-06T01:48:31.471Z,98184.33
2018-12-06T01:51:02.031Z,98195.92
2018-12-06T01:53:32.590Z,98199.56
2018-12-06T01:56:03.161Z,98197.48
2018-12-06T01:58:33.705Z,98193.23
2018-12-06T02:01:05.250Z,98183.14
2018-12-06T02:03:35.802Z,98176.00
2018-12-06T02:06:06.650Z,98188.63
2018-12-06T02:08:37.198Z,98193.56
2018-12-06T02:11:07.797Z,98200.70
2018-12-06T02:13:38.346Z,98200.00
2018-12-06T02:16:08.957Z,98208.36
2018-12-06T02:18:39.539Z,98212.81
2018-12-06T02:21:10.114Z,98223.42
2018-12-06T02:23:40.675Z,98234.91
2018-12-06T02:26:11.631Z,98254.96
2018-12-06T02:28:42.194Z,98277.96
2018-12-06T02:31:13.084Z,98291.30
2018-12-06T02:33:43.883Z,98294.59
2018-12-06T02:36:14.460Z,98313.81
2018-12-06T02:38:45.045Z,98327.63
2018-12-06T02:41:15.892Z,98332.00
2018-12-06T02:43:47.962Z,98332.83
2018-12-06T02:46:18.580Z,98332.44
2018-12-06T02:48:49.468Z,98330.06
2018-12-06T02:51:20.155Z,98332.36
2018-12-06T02:53:50.869Z,98326.25
2018-12-06T02:56:21.553Z,98323.73
2018-12-06T02:58:52.155Z,98331.45
2018-12-06T03:01:23.127Z,98324.39
2018-12-06T03:03:53.995Z,98309.39
2018-12-06T03:06:24.619Z,98301.25
2018-12-06T03:08:55.598Z,98289.74
2018-12-06T03:11:26.171Z,98269.30
2018-12-06T03:13:57.101Z,98254.83
2018-12-06T03:16:27.912Z,98263.44
2018-12-06T03:18:58.721Z,98276.34
2018-12-06T03:21:29.303Z,98283.97
2018-12-06T03:23:59.877Z,98299.34
2018-12-06T03:26:30.445Z,98308.73
2018-12-06T03:29:02.598Z,98314.89
2018-12-06T03:31:33.595Z,98316.98
2018-12-06T03:34:04.872Z,98318.02
2018-12-06T03:36:35.450Z,98312.95
2018-12-06T03:39:08.473Z,98301.36
2018-12-06T03:41:39.273Z,98296.76
2018-12-06T03:44:09.867Z,98292.65
2018-12-06T03:46:40.447Z,98297.85
2018-12-06T03:49:11.033Z,98291.83
2018-12-06T03:51:41.607Z,98286.23
2018-12-06T03:54:12.684Z,98283.20
2018-12-06T03:56:43.303Z,98285.67
2018-12-06T03:59:13.881Z,98284.38
2018-12-06T04:01:44.470Z,98276.49
2018-12-06T04:04:15.058Z,98279.00
2018-12-06T04:06:45.619Z,98280.13
2018-12-06T04:09:16.269Z,98274.11
2018-12-06T04:11:47.398Z,98273.16
2018-12-06T04:14:18.043Z,98266.01
2018-12-06T04:16:48.682Z,98259.51
2018-12-06T04:19:19.325Z,98263.62
2018-12-06T04:21:49.939Z,98261.49
2018-12-06T04:24:20.930Z,98256.59
2018-12-06T04:26:51.554Z,98254.99
2018-12-06T04:29:22.219Z,98249.41
2018-12-06T04:31:52.879Z,98254.99
2018-12-06T04:34:23.592Z,98257.41
2018-12-06T04:36:54.771Z,98265.59
2018-12-06T04:39:25.460Z,98263.35
2018-12-06T04:41:56.029Z,98256.77
2018-12-06T04:44:26.731Z,98239.03
2018-12-06T04:46:57.539Z,98247.40
2018-12-06T04:49:28.311Z,98244.71
2018-12-06T04:51:58.949Z,98256.41
2018-12-06T04:54:29.642Z,98250.27
2018-12-06T04:57:00.221Z,98251.30
2018-12-06T04:59:30.841Z,98252.30
2018-12-06T05:02:02.297Z,98259.84
2018-12-06T05:04:32.820Z,98260.05
2018-12-06T05:07:03.851Z,98259.86
2018-12-06T05:09:34.450Z,98264.41
2018-12-06T05:12:05.477Z,98271.30
2018-12-06T05:14:36.043Z,98265.98
2018-12-06T05:17:06.821Z,98265.42
2018-12-06T05:19:37.388Z,98271.16
2018-12-06T05:22:07.985Z,98265.57
2018-12-06T05:24:38.547Z,98266.30
2018-12-06T05:27:09.512Z,98272.36
2018-12-06T05:29:40.089Z,98280.08
2018-12-06T05:32:10.697Z,98284.80
2018-12-06T05:34:41.268Z,98288.61
2018-12-06T05:37:11.987Z,98276.70
2018-12-06T05:39:43.567Z,98274.58
2018-12-06T05:42:14.209Z,98278.48
2018-12-06T05:44:44.822Z,98276.34
2018-12-06T05:47:15.496Z,98272.89
2018-12-06T05:49:46.300Z,98267.78
2018-12-06T05:52:16.940Z,98275.58
2018-12-06T05:54:47.514Z,98262.58
2018-12-06T05:57:18.098Z,98263.88
2018-12-06T05:59:49.733Z,98266.87
2018-12-06T06:02:20.359Z,98261.84
2018-12-06T06:04:51.002Z,98270.12
2018-12-06T06:07:21.669Z,98275.67
2018-12-06T06:09:52.402Z,98286.16
2018-12-06T06:12:23.058Z,98290.70
2018-12-06T06:14:53.794Z,98284.98
2018-12-06T06:17:24.550Z,98292.25
2018-12-06T06:19:55.845Z,98289.27
2018-12-06T06:22:29.742Z,98300.79
2018-12-06T06:25:00.307Z,98303.78
2018-12-06T06:27:30.986Z,98304.52
2018-12-06T06:30:01.599Z,98303.22
2018-12-06T06:32:32.441Z,98297.93
2018-12-06T06:35:03.050Z,98306.03
2018-12-06T06:37:33.622Z,98303.78
2018-12-06T06:40:04.563Z,98306.68
2018-12-06T06:42:36.194Z,98310.02
2018-12-06T06:45:07.818Z,98311.23
2018-12-06T06:47:38.435Z,98318.30
2018-12-06T06:50:09.571Z,98314.31
2018-12-06T06:52:41.598Z,98319.81
2018-12-06T06:55:12.131Z,98320.11
2018-12-06T06:57:42.750Z,98332.07
2018-12-06T07:00:14.706Z,98342.86
2018-12-06T07:02:45.273Z,98345.38
2018-12-06T07:05:15.845Z,98349.57
2018-12-06T07:07:46.505Z,98354.69
2018-12-06T07:10:17.176Z,98354.52
2018-12-06T07:12:48.215Z,98360.80
2018-12-06T07:15:19.108Z,98366.83
2018-12-06T07:17:52.596Z,98366.66
2018-12-06T07:20:23.198Z,98383.94
2018-12-06T07:22:54.609Z,98390.83
2018-12-06T07:25:25.214Z,98399.67
2018-12-06T07:27:55.773Z,98400.97
2018-12-06T07:30:26.492Z,98404.66
2018-12-06T07:32:57.019Z,98416.27
2018-12-06T07:35:27.845Z,98413.98
2018-12-06T07:37:58.461Z,98417.97
2018-12-06T07:40:29.334Z,98418.23
2018-12-06T07:43:00.039Z,98429.41
2018-12-06T07:45:30.695Z,98425.77
2018-12-06T07:48:01.398Z,98433.02
2018-12-06T07:50:32.074Z,98432.84
2018-12-06T07:53:02.661Z,98438.34
2018-12-06T07:55:34.123Z,98434.19
2018-12-06T07:58:04.746Z,98442.73
2018-12-06T08:00:35.322Z,98447.32
2018-12-06T08:03:06.009Z,98450.19
2018-12-06T08:05:36.861Z,98449.83
2018-12-06T08:08:08.214Z,98452.70
2018-12-06T08:10:38.875Z,98456.44
2018-12-06T08:13:09.458Z,98460.25
2018-12-06T08:15:42.191Z,98464.92
2018-12-06T08:18:12.796Z,98467.36
2018-12-06T08:20:43.419Z,98466.32
2018-12-06T08:23:14.015Z,98464.66
2018-12-06T08:25:45.175Z,98468.48
2018-12-06T08:28:15.869Z,98461.80
2018-12-06T08:30:47.410Z,98473.34
2018-12-06T08:33:17.964Z,98478.37
2018-12-06T08:35:48.542Z,98475.97
2018-12-06T08:38:19.163Z,98477.02
2018-12-06T08:40:51.422Z,98486.98
2018-12-06T08:43:21.997Z,98479.73
2018-12-06T08:45:52.615Z,98486.45
2018-12-06T08:48:23.182Z,98489.79
2018-12-06T08:50:53.860Z,98490.62
2018-12-06T08:53:24.678Z,98492.13
2018-12-06T08:55:55.304Z,98481.97
2018-12-06T08:58:25.894Z,98488.78
2018-12-06T09:00:56.502Z,98495.20
2018-12-06T09:03:27.826Z,98485.43
2018-12-06T09:05:58.574Z,98477.08
2018-12-06T09:08:32.435Z,98478.64
2018-12-06T09:11:03.039Z,98483.70
2018-12-06T09:13:34.307Z,98487.44
2018-12-06T09:16:05.526Z,98494.63
2018-12-06T09:18:36.190Z,98492.66
2018-12-06T09:21:06.811Z,98498.91
2018-12-06T09:23:37.598Z,98501.42
2018-12-06T09:26:10.582Z,98507.29
2018-12-06T09:28:42.171Z,98500.69
2018-12-06T09:31:12.949Z,98510.54
2018-12-06T09:34:00.456Z,98506.16
2018-12-06T09:36:32.531Z,98521.87
2018-12-06T09:39:05.330Z,98521.14
2018-12-06T09:41:36.131Z,98521.70
2018-12-06T09:44:07.302Z,98521.63
2018-12-06T09:46:38.092Z,98524.22
2018-12-06T09:49:08.815Z,98517.33
2018-12-06T09:51:39.707Z,98526.36
2018-12-06T09:54:11.429Z,98529.44
2018-12-06T09:56:42.178Z,98539.38
2018-12-06T09:59:13.083Z,98532.75
2018-12-06T10:01:44.307Z,98526.53
2018-12-06T10:04:14.883Z,98521.14
2018-12-06T10:06:45.587Z,98513.34
2018-12-06T10:09:17.333Z,98512.41
2018-12-06T10:11:47.919Z,98519.48
2018-12-06T10:14:19.709Z,98519.50
2018-12-06T10:16:50.686Z,98515.66
2018-12-06T10:19:21.267Z,98513.91
2018-12-06T10:21:51.978Z,98508.52
2018-12-06T10:24:22.889Z,98505.15
2018-12-06T10:26:53.722Z,98496.94
2018-12-06T10:29:24.366Z,98490.14
2018-12-06T10:31:54.998Z,98487.16
2018-12-06T10:34:25.607Z,98488.66
2018-12-06T10:36:56.373Z,98478.28
2018-12-06T10:39:27.006Z,98482.30
2018-12-06T10:41:57.950Z,98484.14
2018-12-06T10:44:31.619Z,98498.39
2018-12-06T10:47:02.899Z,98501.64
2018-12-06T10:49:33.494Z,98504.53
2018-12-06T10:52:04.981Z,98504.09
2018-12-06T10:54:35.595Z,98511.53
2018-12-06T10:57:06.855Z,98505.68
2018-12-06T10:59:38.300Z,98500.71
2018-12-06T11:02:14.058Z,98501.00
2018-12-06T11:04:44.662Z,98505.39
2018-12-06T11:07:15.283Z,98501.58
2018-12-06T11:09:45.862Z,98495.97
2018-12-06T11:12:16.578Z,98498.87
2018-12-06T11:14:47.859Z,98504.34
2018-12-06T11:17:18.437Z,98511.24
2018-12-06T11:19:49.242Z,98513.86
2018-12-06T11:22:20.059Z,98517.03
2018-12-06T11:24:50.659Z,98524.09
2018-12-06T11:27:22.298Z,98524.09
2018-12-06T11:30:34.842Z,98525.02
2018-12-06T11:33:06.949Z,98523.53
2018-12-06T11:35:37.533Z,98528.27
2018-12-06T11:38:08.614Z,98535.08
2018-12-06T11:40:39.219Z,98542.72
2018-12-06T11:43:10.297Z,98539.19
2018-12-06T11:45:41.168Z,98537.59
2018-12-06T11:48:11.798Z,98537.59
2018-12-06T11:50:42.620Z,98534.88
2018-12-06T11:53:13.507Z,98534.79
2018-12-06T11:55:44.146Z,98538.51
2018-12-06T11:58:14.752Z,98544.84
2018-12-06T12:00:45.664Z,98544.75
2018-12-06T12:03:16.487Z,98544.55
2018-12-06T12:05:47.181Z,98549.58
2018-12-06T12:08:17.840Z,98545.56
2018-12-06T12:10:48.624Z,98547.13
2018-12-06T12:13:22.286Z,98537.44
2018-12-06T12:15:54.260Z,98540.25
2018-12-06T12:18:24.852Z,98534.27
2018-12-06T12:20:56.456Z,98540.25
2018-12-06T12:23:27.809Z,98539.29
2018-12-06T12:25:58.741Z,98532.42
2018-12-06T12:28:29.398Z,98531.02
2018-12-06T12:31:00.035Z,98533.62
2018-12-06T12:33:30.693Z,98531.66
2018-12-06T12:36:01.306Z,98534.07
2018-12-06T12:38:31.889Z,98534.73
2018-12-06T12:41:02.554Z,98526.58
2018-12-06T12:43:33.137Z,98532.81
2018-12-06T12:46:03.746Z,98522.74
2018-12-06T12:48:34.342Z,98527.19
2018-12-06T12:51:05.485Z,98520.30
2018-12-06T12:53:36.230Z,98525.50
2018-12-06T12:56:06.931Z,98529.95
2018-12-06T12:58:37.524Z,98524.63
2018-12-06T13:01:08.295Z,98524.80
2018-12-06T13:03:38.890Z,98530.36
2018-12-06T13:06:10.465Z,98524.00
2018-12-06T13:08:41.027Z,98513.97
2018-12-06T13:11:11.635Z,98524.91
2018-12-06T13:13:42.203Z,98508.41
2018-12-06T13:16:13.082Z,98501.59
2018-12-06T13:18:44.066Z,98503.59
2018-12-06T13:21:14.661Z,98507.20
2018-12-06T13:23:45.255Z,98507.48
2018-12-06T13:26:15.846Z,98501.66
2018-12-06T13:28:47.400Z,98499.00
2018-12-06T13:31:17.994Z,98503.81
2018-12-06T13:33:48.629Z,98511.34
2018-12-06T13:36:19.686Z,98510.45
2018-12-06T13:38:50.351Z,98514.16
2018-12-06T13:41:20.975Z,98515.04
2018-12-06T13:43:52.147Z,98526.02
2018-12-06T13:46:23.266Z,98518.89
2018-12-06T13:48:54.410Z,98521.50
2018-12-06T13:51:25.139Z,98519.64
2018-12-06T13:53:56.661Z,98524.66
2018-12-06T13:56:27.375Z,98512.02
2018-12-06T13:58:58.631Z,98504.28
2018-12-06T14:01:29.458Z,98507.48
2018-12-06T14:04:00.343Z,98511.14
2018-12-06T14:06:31.047Z,98508.29
2018-12-06T14:09:01.746Z,98507.19
2018-12-06T14:11:33.886Z,98515.59
2018-12-06T14:14:05.083Z,98510.84
2018-12-06T14:16:35.795Z,98513.57
2018-12-06T14:19:06.494Z,98511.54
2018-12-06T14:21:37.631Z,98519.12
2018-12-06T14:24:08.203Z,98515.78
2018-12-06T14:26:38.845Z,98514.58
2018-12-06T14:29:09.442Z,98514.58
2018-12-06T14:31:40.058Z,98508.63
2018-12-06T14:34:11.716Z,98521.33
2018-12-06T14:36:42.382Z,98524.77
2018-12-06T14:39:12.972Z,98526.77
2018-12-06T14:41:43.582Z,98528.66
2018-12-06T14:44:14.237Z,98542.19
2018-12-06T14:46:45.237Z,98544.47
2018-12-06T14:49:16.172Z,98544.09
2018-12-06T14:51:47.096Z,98550.83
2018-12-06T14:54:18.886Z,98552.83
2018-12-06T14:56:50.002Z,98553.03
2018-12-06T14:59:22.735Z,98558.47
2018-12-06T15:01:53.717Z,98566.41
2018-12-06T15:04:24.443Z,98569.03
2018-12-06T15:06:55.784Z,98572.09
2018-12-06T15:09:27.522Z,98567.24
2018-12-06T15:11:58.127Z,98568.75
2018-12-06T15:14:28.805Z,98571.88
2018-12-06T15:17:00.721Z,98565.65
2018-12-06T15:19:31.586Z,98560.63
2018-12-06T15:22:02.177Z,98563.92
2018-12-06T15:24:33.176Z,98573.75
2018-12-06T15:27:03.759Z,98574.68
2018-12-06T15:29:34.409Z,98578.02
2018-12-06T15:32:05.711Z,98567.22
2018-12-06T15:34:37.133Z,98563.70
2018-12-06T15:37:07.867Z,98571.46
2018-12-06T15:39:38.707Z,98566.34
2018-12-06T15:42:09.321Z,98560.48
2018-12-06T15:44:39.956Z,98567.31
2018-12-06T15:47:10.694Z,98567.03
2018-12-06T15:49:41.310Z,98563.80
2018-12-06T15:52:11.924Z,98574.83
2018-12-06T15:54:42.896Z,98582.19
2018-12-06T15:57:13.823Z,98583.59
2018-12-06T15:59:44.470Z,98583.31
2018-12-06T16:02:15.600Z,98585.59
2018-12-06T16:04:46.254Z,98588.20
2018-12-06T16:07:16.970Z,98585.15
2018-12-06T16:09:47.591Z,98583.08
2018-12-06T16:12:18.181Z,98586.55
2018-12-06T16:14:48.886Z,98584.39
2018-12-06T16:17:21.521Z,98586.55
2018-12-06T16:19:52.227Z,98587.38
2018-12-06T16:22:22.892Z,98588.11
2018-12-06T16:24:53.638Z,98582.24
2018-12-06T16:27:24.230Z,98588.30
2018-12-06T16:29:55.743Z,98586.51
2018-12-06T16:32:26.579Z,98591.19
2018-12-06T16:34:57.199Z,98586.79
2018-12-06T16:37:27.878Z,98589.30
2018-12-06T16:39:58.654Z,98589.69
2018-12-06T16:42:29.391Z,98587.62
2018-12-06T16:45:00.522Z,98586.22
2018-12-06T16:47:31.401Z,98588.48
2018-12-06T16:50:02.093Z,98603.48
2018-12-06T16:52:32.814Z,98600.97
2018-12-06T16:55:03.457Z,98605.27
2018-12-06T16:57:35.753Z,98599.66
2018-12-06T17:00:14.579Z,98589.21
2018-12-06T17:02:46.420Z,98576.34
2018-12-06T17:05:17.165Z,98577.27
2018-12-06T17:07:48.830Z,98588.09
2018-12-06T17:10:19.431Z,98589.78
2018-12-06T17:12:50.152Z,98594.91
2018-12-06T17:15:20.788Z,98592.75
2018-12-06T17:17:51.414Z,98591.09
2018-12-06T17:20:22.159Z,98595.74
2018-12-06T17:22:52.826Z,98602.66
2018-12-06T17:25:23.419Z,98609.34
2018-12-06T17:27:54.534Z,98614.36
2018-12-06T17:30:25.151Z,98616.98
2018-12-06T17:32:56.275Z,98619.97
2018-12-06T17:35:28.071Z,98627.43
2018-12-06T17:37:59.231Z,98623.06
2018-12-06T17:40:30.479Z,98624.81
2018-12-06T17:43:01.122Z,98623.61
2018-12-06T17:45:32.684Z,98621.47
2018-12-06T17:48:04.119Z,98621.57
2018-12-06T17:50:35.154Z,98623.45
2018-12-06T17:53:05.853Z,98621.28
2018-12-06T17:55:49.978Z,98621.39
2018-12-06T17:58:21.305Z,98619.25
2018-12-06T18:00:52.159Z,98618.97
2018-12-06T18:03:22.815Z,98615.14
2018-12-06T18:05:53.523Z,98621.67
2018-12-06T18:08:24.265Z,98621.77
2018-12-06T18:10:55.097Z,98620.02
2018-12-06T18:13:25.830Z,98621.67
2018-12-06T18:15:56.446Z,98622.98
2018-12-06T18:18:27.088Z,98623.37
2018-12-06T18:20:58.969Z,98617.03
2018-12-06T18:23:29.590Z,98623.17
2018-12-06T18:26:00.211Z,98617.22
2018-12-06T18:28:30.839Z,98632.80
2018-12-06T18:31:01.529Z,98627.19
2018-12-06T18:33:32.767Z,98625.06
2018-12-06T18:36:03.494Z,98631.20
2018-12-06T18:38:34.280Z,98628.85
2018-12-06T18:41:05.674Z,98628.69
2018-12-06T18:43:36.590Z,98627.77
2018-12-06T18:46:07.211Z,98633.09
2018-12-06T18:48:38.192Z,98630.48
2018-12-06T18:51:08.767Z,98638.59
2018-12-06T18:53:40.096Z,98645.38
2018-12-06T18:56:11.986Z,98638.13
2018-12-06T18:58:42.642Z,98636.44
2018-12-06T19:01:13.660Z,98633.72
2018-12-06T19:03:44.270Z,98634.48
2018-12-06T19:06:15.269Z,98630.38
2018-12-06T19:08:46.336Z,98615.91
2018-12-06T19:11:17.785Z,98623.07
2018-12-06T19:13:49.113Z,98622.97
2018-12-06T19:16:20.282Z,98617.75
2018-12-06T19:18:51.059Z,98610.30
2018-12-06T19:21:22.313Z,98612.81
2018-12-06T19:23:53.473Z,98616.25
2018-12-06T19:26:24.634Z,98619.14
2018-12-06T19:28:55.362Z,98620.45
2018-12-06T19:31:26.710Z,98620.31
2018-12-06T19:33:57.769Z,98614.55
2018-12-06T19:36:29.106Z,98619.20
2018-12-06T19:39:00.125Z,98614.45
2018-12-06T19:41:30.790Z,98606.13
2018-12-06T19:44:01.929Z,98601.06
2018-12-06T19:46:32.940Z,98600.43
2018-12-06T19:49:03.573Z,98595.12
2018-12-06T19:51:34.967Z,98591.93
2018-12-06T19:54:06.417Z,98596.61
2018-12-06T19:56:37.594Z,98590.42
2018-12-06T19:59:08.704Z,98583.45
2018-12-06T20:01:39.745Z,98578.58
2018-12-06T20:04:10.826Z,98591.92
2018-12-06T20:06:42.225Z,98585.67
2018-12-06T20:09:12.814Z,98581.08
2018-12-06T20:11:43.917Z,98577.78
2018-12-06T20:14:14.811Z,98576.28
2018-12-06T20:16:46.842Z,98572.98
2018-12-06T20:19:17.902Z,98570.66
2018-12-06T20:21:48.729Z,98569.35
2018-12-06T20:24:19.334Z,98568.63
2018-12-06T20:26:50.515Z,98576.86
2018-12-06T20:29:21.545Z,98579.82
2018-12-06T20:31:52.652Z,98577.78
2018-12-06T20:34:23.305Z,98572.52
2018-12-06T20:36:54.155Z,98578.38
2018-12-06T20:39:25.159Z,98578.33
2018-12-06T20:41:55.890Z,98582.77
2018-12-06T20:44:27.710Z,98582.09
2018-12-06T20:46:58.342Z,98586.98
2018-12-06T20:49:29.005Z,98583.25
2018-12-06T20:52:01.251Z,98579.69
2018-12-06T20:54:32.572Z,98581.91
2018-12-06T20:57:03.248Z,98580.78
2018-12-06T20:59:34.118Z,98579.62
2018-12-06T21:02:05.698Z,98569.83
2018-12-06T21:04:36.792Z,98570.03
2018-12-06T21:07:07.531Z,98576.46
2018-12-06T21:09:39.039Z,98569.63
2018-12-06T21:12:10.290Z,98571.28
2018-12-06T21:14:40.888Z,98577.72
2018-12-06T21:17:12.120Z,98568.13
2018-12-06T21:19:42.729Z,98572.19
2018-12-06T21:22:13.496Z,98568.75
2018-12-06T21:24:44.546Z,98567.63
2018-12-06T21:27:15.337Z,98571.34
2018-12-06T21:29:45.972Z,98559.09
2018-12-06T21:32:16.613Z,98560.13
2018-12-06T21:34:48.363Z,98562.02
2018-12-06T21:37:19.018Z,98561.09
2018-12-06T21:39:51.330Z,98558.38
2018-12-06T21:42:22.509Z,98555.96
2018-12-06T21:44:53.142Z,98558.77
2018-12-06T21:47:25.803Z,98562.49
2018-12-06T21:49:57.378Z,98562.02
2018-12-06T21:52:27.993Z,98552.77
2018-12-06T21:54:58.641Z,98556.59
2018-12-06T21:57:29.230Z,98557.27
2018-12-06T21:59:59.834Z,98557.06
2018-12-06T22:02:30.433Z,98558.47
2018-12-06T22:05:01.571Z,98553.87
2018-12-06T22:07:32.652Z,98551.53
2018-12-06T22:10:03.280Z,98550.95
2018-12-06T22:12:33.865Z,98553.56
2018-12-06T22:15:05.820Z,98550.38
2018-12-06T22:17:36.473Z,98550.65
2018-12-06T22:20:07.518Z,98543.19
2018-12-06T22:22:38.136Z,98548.96
2018-12-06T22:25:09.584Z,98549.82
2018-12-06T22:27:40.174Z,98540.39
2018-12-06T22:30:11.798Z,98548.14
2018-12-06T22:32:42.685Z,98548.86
2018-12-06T22:35:13.274Z,98555.05
2018-12-06T22:37:43.978Z,98545.70
2018-12-06T22:40:14.566Z,98541.77
2018-12-06T22:42:45.569Z,98544.73
2018-12-06T22:46:27.248Z,98538.58
2018-12-06T22:48:57.839Z,98537.85
2018-12-06T22:51:30.747Z,98540.30
2018-12-06T22:54:01.403Z,98536.85
2018-12-06T22:56:31.998Z,98539.36
2018-12-06T22:59:03.683Z,98539.36
2018-12-06T23:01:40.512Z,98530.56
2018-12-06T23:04:11.387Z,98534.38
2018-12-06T23:06:41.986Z,98533.76
2018-12-06T23:09:12.628Z,98527.59
2018-12-06T23:11:43.215Z,98529.45
2018-12-06T23:14:14.511Z,98520.96
2018-12-06T23:16:45.225Z,98518.77
2018-12-06T23:19:15.885Z,98518.77
2018-12-06T23:21:47.407Z,98517.80
2018-12-06T23:24:18.794Z,98509.03
2018-12-06T23:26:49.382Z,98511.91
2018-12-06T23:32:38.471Z,98503.48
2018-12-06T23:35:09.487Z,98502.56
2018-12-06T23:37:40.095Z,98503.77
2018-12-06T23:40:12.001Z,98501.48
2018-12-06T23:42:42.990Z,98501.25
2018-12-06T23:45:14.187Z,98494.44
2018-12-06T23:47:44.806Z,98494.06
2018-12-06T23:50:16.206Z,98492.62
2018-12-06T23:52:46.839Z,98482.88
2018-12-06T23:55:17.456Z,98492.86
2018-12-06T23:57:49.144Z,98492.41
